createdAt,value
2023-01-20T00:01:48.496Z,10.65
2023-01-20T00:04:19.620Z,10.00
2023-01-20T00:06:48.216Z,10.18
2023-01-20T00:09:18.252Z,10.45
2023-01-20T00:11:47.063Z,10.73
2023-01-20T00:14:17.897Z,10.95
2023-01-20T00:16:46.083Z,9.55
2023-01-20T00:19:14.687Z,9.02
2023-01-20T00:21:43.399Z,10.20
2023-01-20T00:24:11.532Z,9.70
2023-01-20T00:26:39.712Z,11.10
2023-01-20T00:29:09.227Z,10.23
2023-01-20T00:31:38.314Z,11.43
2023-01-20T00:34:06.584Z,10.80
2023-01-20T00:36:35.442Z,11.38
2023-01-20T00:39:04.632Z,11.85
2023-01-20T00:41:33.004Z,11.02
2023-01-20T00:44:01.051Z,10.55
2023-01-20T00:46:29.337Z,10.55
2023-01-20T00:48:57.694Z,10.05
2023-01-20T00:51:25.790Z,9.90
2023-01-20T00:53:54.134Z,9.40
2023-01-20T00:56:22.278Z,9.50
2023-01-20T00:58:50.318Z,7.70
2023-01-20T01:01:18.757Z,8.45
2023-01-20T01:03:47.025Z,9.35
2023-01-20T01:06:17.950Z,8.63
2023-01-20T01:08:46.489Z,8.18
2023-01-20T01:11:15.015Z,8.82
2023-01-20T01:13:43.849Z,9.00
2023-01-20T01:16:14.791Z,9.48
2023-01-20T01:18:44.048Z,8.45
2023-01-20T01:21:17.236Z,10.20
2023-01-20T01:23:46.350Z,11.00
2023-01-20T01:26:14.625Z,10.70
2023-01-20T01:28:43.225Z,10.27
2023-01-20T01:31:11.669Z,10.38
2023-01-20T01:33:39.855Z,9.95
2023-01-20T01:36:12.333Z,9.85
2023-01-20T01:38:41.265Z,9.27
2023-01-20T01:41:18.227Z,8.57
2023-01-20T01:44:12.879Z,9.20
2023-01-20T01:46:42.593Z,10.07
2023-01-20T01:49:17.888Z,8.27
2023-01-20T01:51:56.220Z,9.85
2023-01-20T01:54:31.467Z,9.05
2023-01-20T01:57:01.091Z,10.40
2023-01-20T01:59:29.721Z,9.50
2023-01-20T02:01:58.470Z,9.55
2023-01-20T02:04:28.796Z,9.43
2023-01-20T02:07:06.644Z,9.73
2023-01-20T02:09:36.448Z,10.88
2023-01-20T02:12:11.261Z,8.90
2023-01-20T02:14:45.216Z,10.95
2023-01-20T02:17:31.912Z,12.90
2023-01-20T02:20:20.304Z,10.55
2023-01-20T02:23:09.557Z,11.38
2023-01-20T02:26:09.313Z,8.50
2023-01-20T02:29:08.003Z,10.60
2023-01-20T02:32:15.937Z,12.52
2023-01-20T02:34:58.826Z,11.20
2023-01-20T02:37:34.034Z,11.15
2023-01-20T02:40:49.391Z,10.98
2023-01-20T02:43:51.541Z,11.55
2023-01-20T02:49:27.584Z,8.88
2023-01-20T02:52:17.365Z,11.10
2023-01-20T02:54:50.567Z,11.60
2023-01-20T02:57:38.092Z,12.18
2023-01-20T03:00:17.087Z,10.48
2023-01-20T03:02:48.529Z,10.50
2023-01-20T03:05:36.152Z,11.38
2023-01-20T03:08:09.552Z,9.43
2023-01-20T03:10:43.991Z,11.80
2023-01-20T03:13:31.930Z,11.50
2023-01-20T03:16:06.445Z,11.30
2023-01-20T03:18:36.710Z,10.93
2023-01-20T03:21:08.202Z,11.07
2023-01-20T03:23:41.632Z,10.10
2023-01-20T03:26:13.587Z,9.68
2023-01-20T03:28:45.076Z,9.90
2023-01-20T03:31:24.645Z,6.55
2023-01-20T03:33:57.485Z,9.63
2023-01-20T03:36:29.089Z,10.00
2023-01-20T03:38:58.398Z,8.07
2023-01-20T03:41:55.032Z,8.82
2023-01-20T03:44:43.526Z,10.32
2023-01-20T03:47:36.490Z,8.35
2023-01-20T03:50:31.844Z,8.88
2023-01-20T03:53:15.615Z,8.90
2023-01-20T03:56:04.372Z,8.45
2023-01-20T03:58:40.257Z,8.98
2023-01-20T04:01:18.820Z,8.02
2023-01-20T04:03:53.075Z,10.60
2023-01-20T04:06:25.508Z,9.93
2023-01-20T04:09:00.861Z,9.65
2023-01-20T04:11:30.048Z,10.05
2023-01-20T04:13:58.490Z,9.60
2023-01-20T04:16:27.716Z,9.32
2023-01-20T04:18:57.642Z,11.15
2023-01-20T04:21:39.950Z,9.68
2023-01-20T04:24:33.327Z,8.77
2023-01-20T04:27:10.771Z,9.30
2023-01-20T04:29:41.571Z,9.57
2023-01-20T04:32:12.254Z,11.70
2023-01-20T04:34:40.342Z,11.55
2023-01-20T04:37:08.212Z,10.05
2023-01-20T04:39:36.455Z,10.90
2023-01-20T04:42:05.589Z,10.25
2023-01-20T04:44:34.025Z,11.73
2023-01-20T04:47:01.961Z,11.38
2023-01-20T04:49:30.621Z,9.98
2023-01-20T04:51:58.509Z,9.23
2023-01-20T04:54:27.034Z,10.25
2023-01-20T04:56:55.675Z,10.15
2023-01-20T04:59:25.416Z,9.80
2023-01-20T05:01:54.149Z,10.35
2023-01-20T05:04:24.336Z,11.23
2023-01-20T05:06:52.327Z,10.65
2023-01-20T05:09:20.535Z,10.80
2023-01-20T05:11:49.379Z,9.82
2023-01-20T05:14:17.954Z,9.18
2023-01-20T05:16:47.204Z,9.15
2023-01-20T05:19:15.850Z,9.75
2023-01-20T05:21:43.882Z,9.55
2023-01-20T05:24:12.497Z,9.18
2023-01-20T05:26:41.169Z,9.05
2023-01-20T05:29:09.935Z,9.38
2023-01-20T05:31:43.663Z,9.45
2023-01-20T05:34:12.346Z,8.77
2023-01-20T05:36:41.063Z,8.82
2023-01-20T05:39:09.192Z,9.60
2023-01-20T05:41:41.182Z,9.70
2023-01-20T05:44:09.381Z,10.13
2023-01-20T05:46:37.850Z,9.48
2023-01-20T05:49:05.925Z,9.30
2023-01-20T05:51:33.829Z,9.52
2023-01-20T05:54:05.144Z,9.70
2023-01-20T05:56:33.364Z,9.70
2023-01-20T05:59:01.252Z,9.10
2023-01-20T06:01:30.098Z,9.90
2023-01-20T06:03:58.695Z,10.88
2023-01-20T06:06:27.389Z,11.77
2023-01-20T06:08:56.392Z,10.10
2023-01-20T06:11:24.857Z,8.90
2023-01-20T06:13:52.836Z,9.50
2023-01-20T06:16:21.869Z,10.20
2023-01-20T06:18:49.827Z,9.18
2023-01-20T06:21:18.152Z,9.38
2023-01-20T06:23:46.659Z,9.98
2023-01-20T06:26:15.586Z,11.38
2023-01-20T06:28:43.666Z,11.48
2023-01-20T06:31:17.204Z,13.13
2023-01-20T06:33:45.774Z,11.23
2023-01-20T06:36:17.036Z,10.57
2023-01-20T06:38:50.654Z,10.05
2023-01-20T06:41:20.718Z,15.75
2023-01-20T06:43:50.356Z,15.38
2023-01-20T06:46:18.683Z,13.60
2023-01-20T06:48:47.242Z,14.20
2023-01-20T06:51:24.541Z,17.00
2023-01-20T06:53:53.179Z,14.38
2023-01-20T06:56:22.102Z,17.60
2023-01-20T06:58:50.251Z,19.33
2023-01-20T07:01:29.742Z,18.90
2023-01-20T07:03:58.276Z,23.17
2023-01-20T07:06:31.303Z,24.23
2023-01-20T07:09:01.617Z,18.73
2023-01-20T07:11:31.498Z,19.63
2023-01-20T07:14:01.590Z,16.70
2023-01-20T07:16:30.206Z,21.33
2023-01-20T07:18:58.721Z,16.67
2023-01-20T07:21:27.289Z,15.23
2023-01-20T07:23:56.404Z,14.60
2023-01-20T07:26:26.716Z,15.88
2023-01-20T07:28:55.131Z,25.10
2023-01-20T07:31:26.613Z,18.48
2023-01-20T07:33:58.417Z,16.58
2023-01-20T07:38:55.230Z,14.57
2023-01-20T07:41:23.879Z,15.60
2023-01-20T07:43:53.790Z,15.13
2023-01-20T07:46:22.682Z,13.98
2023-01-20T07:48:50.803Z,15.02
2023-01-20T07:51:19.453Z,13.88
2023-01-20T07:53:52.515Z,14.20
2023-01-20T07:56:26.001Z,14.40
2023-01-20T07:58:56.273Z,14.77
2023-01-20T08:01:32.221Z,14.32
2023-01-20T08:04:01.211Z,16.95
2023-01-20T08:06:30.617Z,16.60
2023-01-20T08:09:02.317Z,12.82
2023-01-20T08:14:00.419Z,11.80
2023-01-20T08:16:28.932Z,13.32
2023-01-20T08:18:57.180Z,13.75
2023-01-20T08:21:31.602Z,15.68
2023-01-20T08:24:02.832Z,15.40
2023-01-20T08:26:35.618Z,13.98
2023-01-20T08:29:10.420Z,13.77
2023-01-20T08:31:39.878Z,11.82
2023-01-20T08:34:08.064Z,11.90
2023-01-20T08:36:40.290Z,13.95
2023-01-20T08:39:14.197Z,11.88
2023-01-20T08:41:44.361Z,11.68
2023-01-20T08:44:12.909Z,12.55
2023-01-20T08:46:42.322Z,12.98
2023-01-20T08:49:17.988Z,12.68
2023-01-20T08:51:46.258Z,12.60
2023-01-20T08:54:15.754Z,13.20
2023-01-20T08:56:44.213Z,12.70
2023-01-20T08:59:13.039Z,11.82
2023-01-20T09:01:43.274Z,12.57
2023-01-20T09:04:11.737Z,12.75
2023-01-20T09:06:49.080Z,11.90
2023-01-20T09:09:22.755Z,12.73
2023-01-20T09:11:51.685Z,13.02
2023-01-20T09:14:24.878Z,12.75
2023-01-20T09:16:53.145Z,14.20
2023-01-20T09:19:21.315Z,14.15
2023-01-20T09:21:49.845Z,13.82
2023-01-20T09:24:17.918Z,13.15
2023-01-20T09:26:47.400Z,11.95
2023-01-20T09:29:19.804Z,14.07
2023-01-20T09:31:58.373Z,11.98
2023-01-20T09:34:29.873Z,10.85
2023-01-20T09:37:21.693Z,11.02
2023-01-20T09:40:08.754Z,9.77
2023-01-20T09:43:07.608Z,10.00
2023-01-20T09:46:09.385Z,10.30
2023-01-20T09:49:23.258Z,10.27
2023-01-20T09:52:41.971Z,10.75
2023-01-20T09:55:30.703Z,10.10
2023-01-20T09:58:37.468Z,9.63
2023-01-20T10:01:21.757Z,11.75
2023-01-20T10:04:06.139Z,10.80
2023-01-20T10:07:07.583Z,10.32
2023-01-20T10:09:56.381Z,10.20
2023-01-20T10:12:47.940Z,10.27
2023-01-20T10:15:33.229Z,9.10
2023-01-20T10:18:34.010Z,10.70
2023-01-20T10:21:46.937Z,8.63
2023-01-20T10:24:53.105Z,8.77
2023-01-20T10:27:24.533Z,8.63
2023-01-20T10:30:16.130Z,9.95
2023-01-20T10:32:55.159Z,9.05
2023-01-20T10:35:31.286Z,9.05
2023-01-20T10:38:00.118Z,9.15
2023-01-20T10:40:47.974Z,10.38
2023-01-20T10:43:17.956Z,9.85
2023-01-20T10:46:17.550Z,9.25
2023-01-20T10:48:54.590Z,10.45
2023-01-20T10:52:10.613Z,9.50
2023-01-20T10:54:53.349Z,9.10
2023-01-20T10:57:21.940Z,9.57
2023-01-20T10:59:55.178Z,9.48
2023-01-20T11:02:32.168Z,10.23
2023-01-20T11:05:10.334Z,9.05
2023-01-20T11:07:38.600Z,10.68
2023-01-20T11:10:22.496Z,9.77
2023-01-20T11:12:55.517Z,11.10
2023-01-20T11:15:33.910Z,9.65
2023-01-20T11:18:16.447Z,9.90
2023-01-20T11:21:08.556Z,9.52
2023-01-20T11:23:57.671Z,9.13
2023-01-20T11:26:36.003Z,10.98
2023-01-20T11:29:10.224Z,11.38
2023-01-20T11:31:55.098Z,11.45
2023-01-20T11:34:36.501Z,11.75
2023-01-20T11:37:10.870Z,11.40
2023-01-20T11:39:51.806Z,10.25
2023-01-20T11:42:27.715Z,11.10
2023-01-20T11:45:19.744Z,10.88
2023-01-20T11:48:06.283Z,9.95
2023-01-20T11:50:40.492Z,12.20
2023-01-20T11:53:23.414Z,12.73
2023-01-20T11:56:01.488Z,11.70
2023-01-20T11:58:49.190Z,12.27
2023-01-20T12:02:20.130Z,11.32
2023-01-20T12:05:16.579Z,11.82
2023-01-20T12:07:51.611Z,12.05
2023-01-20T12:10:30.056Z,12.48
2023-01-20T12:14:00.895Z,12.57
2023-01-20T12:16:32.542Z,10.63
2023-01-20T12:19:09.946Z,11.95
2023-01-20T12:21:47.939Z,11.45
2023-01-20T12:25:09.615Z,11.98
2023-01-20T12:27:48.739Z,11.27
2023-01-20T12:31:01.559Z,12.55
2023-01-20T12:33:40.745Z,12.90
2023-01-20T12:36:38.066Z,11.55
2023-01-20T12:39:46.473Z,12.70
2023-01-20T12:42:42.291Z,12.57
2023-01-20T12:45:28.149Z,10.98
2023-01-20T12:48:36.991Z,11.43
2023-01-20T12:51:22.842Z,11.07
2023-01-20T12:54:47.172Z,11.18
2023-01-20T12:57:44.229Z,11.13
2023-01-20T13:00:37.621Z,11.98
2023-01-20T13:03:33.375Z,11.93
2023-01-20T13:06:42.623Z,14.10
2023-01-20T13:09:19.539Z,13.95
2023-01-20T13:12:29.708Z,15.55
2023-01-20T13:15:20.095Z,12.50
2023-01-20T13:18:24.958Z,12.80
2023-01-20T13:20:55.095Z,13.00
2023-01-20T13:23:32.343Z,13.50
2023-01-20T13:26:03.865Z,14.77
2023-01-20T13:28:32.460Z,12.68
2023-01-20T13:31:22.762Z,11.63
2023-01-20T13:33:50.852Z,12.15
2023-01-20T13:36:21.181Z,10.68
2023-01-20T13:39:11.554Z,10.88
2023-01-20T13:41:52.423Z,10.70
2023-01-20T13:44:42.404Z,10.30
2023-01-20T13:47:12.350Z,11.32
2023-01-20T13:49:54.935Z,13.07
2023-01-20T13:52:51.044Z,11.68
2023-01-20T13:55:51.295Z,10.85
2023-01-20T13:58:36.198Z,13.05
2023-01-20T14:01:10.744Z,11.32
2023-01-20T14:03:40.268Z,13.63
2023-01-20T14:06:21.521Z,13.23
2023-01-20T14:08:51.747Z,13.10
2023-01-20T14:11:25.020Z,12.68
2023-01-20T14:13:54.590Z,13.93
2023-01-20T14:16:36.969Z,13.25
2023-01-20T14:19:35.137Z,12.60
2023-01-20T14:22:19.306Z,12.50
2023-01-20T14:24:50.122Z,12.73
2023-01-20T14:27:29.985Z,11.75
2023-01-20T14:30:20.357Z,11.77
2023-01-20T14:32:49.356Z,10.95
2023-01-20T14:35:34.668Z,11.23
2023-01-20T14:38:03.604Z,10.38
2023-01-20T14:40:37.795Z,11.18
2023-01-20T14:43:20.499Z,10.68
2023-01-20T14:45:52.327Z,8.43
2023-01-20T14:48:34.085Z,9.38
2023-01-20T14:51:04.556Z,8.52
2023-01-20T14:53:33.287Z,10.23
2023-01-20T14:56:07.977Z,9.57
2023-01-20T14:58:44.331Z,11.65
2023-01-20T15:01:23.681Z,13.00
2023-01-20T15:04:02.289Z,13.65
2023-01-20T15:06:30.696Z,13.30
2023-01-20T15:09:06.585Z,14.60
2023-01-20T15:11:38.547Z,13.70
2023-01-20T15:14:09.078Z,13.45
2023-01-20T15:16:38.912Z,11.27
2023-01-20T15:19:23.214Z,11.40
2023-01-20T15:21:54.438Z,9.80
2023-01-20T15:24:31.837Z,10.00
2023-01-20T15:27:03.049Z,9.70
2023-01-20T15:29:37.102Z,9.80
2023-01-20T15:32:12.978Z,8.65
2023-01-20T15:34:42.641Z,9.93
2023-01-20T15:37:19.031Z,9.60
2023-01-20T15:39:48.001Z,10.73
2023-01-20T15:42:19.291Z,11.00
2023-01-20T15:44:48.867Z,11.25
2023-01-20T15:47:27.451Z,10.55
2023-01-20T15:49:55.844Z,11.73
2023-01-20T15:52:25.170Z,12.10
2023-01-20T15:54:53.649Z,11.25
2023-01-20T15:57:22.394Z,10.60
2023-01-20T15:59:50.514Z,11.73
2023-01-20T16:02:22.705Z,11.18
2023-01-20T16:04:51.387Z,11.18
2023-01-20T16:07:21.434Z,10.50
2023-01-20T16:09:49.808Z,10.75
2023-01-20T16:12:19.196Z,11.75
2023-01-20T16:14:47.698Z,10.68
2023-01-20T16:17:21.149Z,11.70
2023-01-20T16:19:50.566Z,11.23
2023-01-20T16:22:19.192Z,10.52
2023-01-20T16:24:49.502Z,9.85
2023-01-20T16:27:23.860Z,10.80
2023-01-20T16:29:53.350Z,10.70
2023-01-20T16:32:22.563Z,11.75
2023-01-20T16:34:51.054Z,10.45
2023-01-20T16:37:19.446Z,9.25
2023-01-20T16:39:47.987Z,10.85
2023-01-20T16:42:21.052Z,10.60
2023-01-20T16:44:49.718Z,9.20
2023-01-20T16:47:17.957Z,8.90
2023-01-20T16:49:46.832Z,9.73
2023-01-20T16:52:15.492Z,9.05
2023-01-20T16:54:43.889Z,8.13
2023-01-20T16:57:12.247Z,8.50
2023-01-20T16:59:40.397Z,9.10
2023-01-20T17:02:11.385Z,8.32
2023-01-20T17:04:40.127Z,9.27
2023-01-20T17:07:08.430Z,9.85
2023-01-20T17:09:39.427Z,9.85
2023-01-20T17:12:08.423Z,8.85
2023-01-20T17:14:36.882Z,8.45
2023-01-20T17:17:05.342Z,6.65
2023-01-20T17:19:34.160Z,8.77
2023-01-20T17:22:02.466Z,7.68
2023-01-20T17:24:30.703Z,7.63
2023-01-20T17:27:00.197Z,6.88
2023-01-20T17:29:29.163Z,7.13
2023-01-20T17:31:57.930Z,8.32
2023-01-20T17:34:27.370Z,7.45
2023-01-20T17:36:57.086Z,7.20
2023-01-20T17:39:25.248Z,7.07
2023-01-20T17:41:53.999Z,7.15
2023-01-20T17:44:22.526Z,6.25
2023-01-20T17:46:51.028Z,5.97
2023-01-20T17:49:23.757Z,7.78
2023-01-20T17:51:52.115Z,7.82
2023-01-20T17:54:20.830Z,7.07
2023-01-20T17:56:49.403Z,7.20
2023-01-20T17:59:17.735Z,6.93
2023-01-20T18:01:45.925Z,7.82
2023-01-20T18:04:15.826Z,6.55
2023-01-20T18:06:44.327Z,7.45
2023-01-20T18:09:14.950Z,8.65
2023-01-20T18:11:44.253Z,8.43
2023-01-20T18:14:13.308Z,7.35
2023-01-20T18:16:42.069Z,7.53
2023-01-20T18:19:14.771Z,8.63
2023-01-20T18:21:44.519Z,7.88
2023-01-20T18:24:13.699Z,7.07
2023-01-20T18:26:45.035Z,7.53
2023-01-20T18:29:20.135Z,6.93
2023-01-20T18:31:51.848Z,8.43
2023-01-20T18:34:22.376Z,7.97
2023-01-20T18:36:51.932Z,7.93
2023-01-20T18:39:24.615Z,9.32
2023-01-20T18:41:53.113Z,8.82
2023-01-20T18:44:23.719Z,9.25
2023-01-20T18:46:53.172Z,9.45
2023-01-20T18:49:22.037Z,11.10
2023-01-20T18:51:51.489Z,10.50
2023-01-20T18:54:25.797Z,10.52
2023-01-20T18:56:54.190Z,11.02
2023-01-20T18:59:23.153Z,11.05
2023-01-20T19:01:52.075Z,11.77
2023-01-20T19:04:23.163Z,11.93
2023-01-20T19:06:51.767Z,11.10
2023-01-20T19:09:20.357Z,12.40
2023-01-20T19:11:49.088Z,12.63
2023-01-20T19:14:18.446Z,10.25
2023-01-20T19:16:49.907Z,11.68
2023-01-20T19:19:19.256Z,10.05
2023-01-20T19:21:52.465Z,11.07
2023-01-20T19:24:21.755Z,11.00
2023-01-20T19:26:50.303Z,10.57
2023-01-20T19:29:20.069Z,11.25
2023-01-20T19:31:49.410Z,8.38
2023-01-20T19:34:18.359Z,10.57
2023-01-20T19:36:47.080Z,9.15
2023-01-20T19:39:16.731Z,9.48
2023-01-20T19:41:45.817Z,10.50
2023-01-20T19:44:15.936Z,10.07
2023-01-20T19:46:45.129Z,10.02
2023-01-20T19:49:13.979Z,8.70
2023-01-20T19:51:42.140Z,8.45
2023-01-20T19:54:14.467Z,9.75
2023-01-20T19:56:43.910Z,8.35
2023-01-20T19:59:14.132Z,9.23
2023-01-20T20:01:43.005Z,9.00
2023-01-20T20:04:14.400Z,8.45
2023-01-20T20:06:47.749Z,8.07
2023-01-20T20:09:20.966Z,7.63
2023-01-20T20:11:51.070Z,7.55
2023-01-20T20:14:22.417Z,7.18
2023-01-20T20:16:51.544Z,7.88
2023-01-20T20:19:20.635Z,7.60
2023-01-20T20:21:50.290Z,7.10
2023-01-20T20:24:19.532Z,6.50
2023-01-20T20:26:48.147Z,6.18
2023-01-20T20:29:19.425Z,5.22
2023-01-20T20:31:48.302Z,5.43
2023-01-20T20:34:19.379Z,5.88
2023-01-20T20:36:48.411Z,6.28
2023-01-20T20:39:19.273Z,5.55
2023-01-20T20:41:48.264Z,5.07
2023-01-20T20:44:18.535Z,5.40
2023-01-20T20:46:49.090Z,5.63
2023-01-20T20:49:21.834Z,5.50
2023-01-20T20:51:50.947Z,6.55
2023-01-20T20:54:20.983Z,6.30
2023-01-20T20:56:50.139Z,6.60
2023-01-20T20:59:23.481Z,5.63
2023-01-20T21:01:53.657Z,5.43
2023-01-20T21:04:23.105Z,5.00
2023-01-20T21:06:52.568Z,5.25
2023-01-20T21:09:21.340Z,4.80
2023-01-20T21:11:50.234Z,4.45
2023-01-20T21:14:21.633Z,5.20
2023-01-20T21:16:50.683Z,4.45
2023-01-20T21:19:19.709Z,4.35
2023-01-20T21:21:47.881Z,4.82
2023-01-20T21:24:17.312Z,3.83
2023-01-20T21:26:47.108Z,4.90
2023-01-20T21:29:15.689Z,4.55
2023-01-20T21:31:43.953Z,4.18
2023-01-20T21:34:15.423Z,4.95
2023-01-20T21:36:44.228Z,3.67
2023-01-20T21:39:16.802Z,5.57
2023-01-20T21:41:46.901Z,3.78
2023-01-20T21:44:39.293Z,4.57
2023-01-20T21:47:08.412Z,5.18
2023-01-20T21:49:56.377Z,5.97
2023-01-20T21:52:45.634Z,4.63
2023-01-20T21:55:20.216Z,4.90
2023-01-20T21:57:51.435Z,4.38
2023-01-20T22:00:22.425Z,5.05
2023-01-20T22:02:50.654Z,4.22
2023-01-20T22:05:19.171Z,4.65
2023-01-20T22:07:48.719Z,4.57
2023-01-20T22:10:18.099Z,5.90
2023-01-20T22:12:46.677Z,3.63
2023-01-20T22:15:15.533Z,5.65
2023-01-20T22:17:44.299Z,4.55
2023-01-20T22:20:12.975Z,4.05
2023-01-20T22:22:41.464Z,3.70
2023-01-20T22:25:10.307Z,4.20
2023-01-20T22:27:38.525Z,4.00
2023-01-20T22:30:09.721Z,4.20
2023-01-20T22:32:38.698Z,4.30
2023-01-20T22:35:08.565Z,4.85
2023-01-20T22:37:37.657Z,3.75
2023-01-20T22:40:06.451Z,3.80
2023-01-20T22:42:35.088Z,3.60
2023-01-20T22:45:04.181Z,4.28
2023-01-20T22:47:33.835Z,3.70
2023-01-20T22:50:02.896Z,4.40
2023-01-20T22:52:31.893Z,3.53
2023-01-20T22:55:00.553Z,3.65
2023-01-20T22:57:31.034Z,3.97
2023-01-20T22:59:59.718Z,3.92
2023-01-20T23:02:28.170Z,4.05
2023-01-20T23:04:56.311Z,3.50
2023-01-20T23:07:24.697Z,3.65
2023-01-20T23:09:53.874Z,2.80
2023-01-20T23:12:22.288Z,3.03
2023-01-20T23:15:00.458Z,2.95
2023-01-20T23:17:31.486Z,3.10
2023-01-20T23:20:00.125Z,3.60
2023-01-20T23:22:30.355Z,2.85
2023-01-20T23:24:58.602Z,3.13
2023-01-20T23:27:26.727Z,2.42
2023-01-20T23:29:56.122Z,2.97
2023-01-20T23:32:24.732Z,3.17
2023-01-20T23:34:52.801Z,2.75
2023-01-20T23:37:21.407Z,3.08
2023-01-20T23:39:52.735Z,2.90
2023-01-20T23:42:21.271Z,2.80
2023-01-20T23:44:49.703Z,2.88
2023-01-20T23:47:17.982Z,2.67
2023-01-20T23:49:46.503Z,2.75
2023-01-20T23:52:14.979Z,2.75
2023-01-20T23:54:43.311Z,2.30
2023-01-20T23:57:11.524Z,2.97
2023-01-20T23:59:40.037Z,2.72
